sensor_id;sensor_type;location;lat;lon;timestamp;temperature;humidity
3408;DHT22;1717;50.240;8.406;2023-12-07T00:01:32;6.30;99.90
3408;DHT22;1717;50.240;8.406;2023-12-07T00:04:00;6.20;99.90
3408;DHT22;1717;50.240;8.406;2023-12-07T00:06:27;6.20;99.90
3408;DHT22;1717;50.240;8.406;2023-12-07T00:08:54;6.20;99.90
3408;DHT22;1717;50.240;8.406;2023-12-07T00:11:22;6.20;99.90
3408;DHT22;1717;50.240;8.406;2023-12-07T00:13:50;6.30;99.90
3408;DHT22;1717;50.240;8.406;2023-12-07T00:16:17;6.40;99.90
3408;DHT22;1717;50.240;8.406;2023-12-07T00:18:43;6.30;99.90
3408;DHT22;1717;50.240;8.406;2023-12-07T00:21:10;6.30;99.90
3408;DHT22;1717;50.240;8.406;2023-12-07T00:23:37;6.30;99.90
3408;DHT22;1717;50.240;8.406;2023-12-07T00:26:04;6.30;99.90
3408;DHT22;1717;50.240;8.406;2023-12-07T00:28:31;6.30;99.90
3408;DHT22;1717;50.240;8.406;2023-12-07T00:30:59;6.30;99.90
3408;DHT22;1717;50.240;8.406;2023-12-07T00:33:27;6.30;99.90
3408;DHT22;1717;50.240;8.406;2023-12-07T00:35:54;6.30;99.90
3408;DHT22;1717;50.240;8.406;2023-12-07T00:38:21;6.30;99.90
3408;DHT22;1717;50.240;8.406;2023-12-07T00:40:48;6.30;99.90
3408;DHT22;1717;50.240;8.406;2023-12-07T00:43:15;6.30;99.90
3408;DHT22;1717;50.240;8.406;2023-12-07T00:45:42;6.30;99.90
3408;DHT22;1717;50.240;8.406;2023-12-07T00:48:11;6.30;99.90
3408;DHT22;1717;50.240;8.406;2023-12-07T00:50:38;6.30;99.90
3408;DHT22;1717;50.240;8.406;2023-12-07T00:53:04;6.30;99.90
3408;DHT22;1717;50.240;8.406;2023-12-07T00:55:31;6.20;99.90
3408;DHT22;1717;50.240;8.406;2023-12-07T00:57:58;6.10;99.90
3408;DHT22;1717;50.240;8.406;2023-12-07T01:00:27;6.20;99.90
3408;DHT22;1717;50.240;8.406;2023-12-07T01:02:53;6.20;99.90
3408;DHT22;1717;50.240;8.406;2023-12-07T01:05:22;6.20;99.90
3408;DHT22;1717;50.240;8.406;2023-12-07T01:07:49;6.20;99.90
3408;DHT22;1717;50.240;8.406;2023-12-07T01:10:16;6.20;99.90
3408;DHT22;1717;50.240;8.406;2023-12-07T01:12:43;6.30;99.90
3408;DHT22;1717;50.240;8.406;2023-12-07T01:15:10;6.20;99.90
3408;DHT22;1717;50.240;8.406;2023-12-07T01:17:36;6.20;99.90
3408;DHT22;1717;50.240;8.406;2023-12-07T01:20:05;6.20;99.90
3408;DHT22;1717;50.240;8.406;2023-12-07T01:22:39;6.20;99.90
3408;DHT22;1717;50.240;8.406;2023-12-07T01:25:06;6.20;99.90
3408;DHT22;1717;50.240;8.406;2023-12-07T01:27:34;6.20;99.90
3408;DHT22;1717;50.240;8.406;2023-12-07T01:30:01;6.20;99.90
3408;DHT22;1717;50.240;8.406;2023-12-07T01:32:28;6.20;99.90
3408;DHT22;1717;50.240;8.406;2023-12-07T01:34:55;6.20;99.90
3408;DHT22;1717;50.240;8.406;2023-12-07T01:37:22;6.20;99.90
3408;DHT22;1717;50.240;8.406;2023-12-07T01:39:50;6.10;99.90
3408;DHT22;1717;50.240;8.406;2023-12-07T01:42:17;6.20;99.90
3408;DHT22;1717;50.240;8.406;2023-12-07T01:44:44;6.20;99.90
3408;DHT22;1717;50.240;8.406;2023-12-07T01:47:11;6.20;99.90
3408;DHT22;1717;50.240;8.406;2023-12-07T01:49:39;6.30;99.90
3408;DHT22;1717;50.240;8.406;2023-12-07T01:52:06;6.30;99.90
3408;DHT22;1717;50.240;8.406;2023-12-07T01:54:34;6.30;99.90
3408;DHT22;1717;50.240;8.406;2023-12-07T01:57:03;6.40;99.90
3408;DHT22;1717;50.240;8.406;2023-12-07T01:59:30;6.30;99.90
3408;DHT22;1717;50.240;8.406;2023-12-07T02:01:58;6.30;99.90
3408;DHT22;1717;50.240;8.406;2023-12-07T02:04:24;6.30;99.90
3408;DHT22;1717;50.240;8.406;2023-12-07T02:06:53;6.30;99.90
3408;DHT22;1717;50.240;8.406;2023-12-07T02:09:20;6.30;99.90
3408;DHT22;1717;50.240;8.406;2023-12-07T02:11:48;6.20;99.90
3408;DHT22;1717;50.240;8.406;2023-12-07T02:14:16;6.20;99.90
3408;DHT22;1717;50.240;8.406;2023-12-07T02:16:47;6.10;99.90
3408;DHT22;1717;50.240;8.406;2023-12-07T02:19:28;6.10;99.90
3408;DHT22;1717;50.240;8.406;2023-12-07T02:22:17;6.10;99.90
3408;DHT22;1717;50.240;8.406;2023-12-07T02:24:48;6.00;99.90
3408;DHT22;1717;50.240;8.406;2023-12-07T02:27:34;6.00;99.90
3408;DHT22;1717;50.240;8.406;2023-12-07T02:30:01;6.00;99.90
3408;DHT22;1717;50.240;8.406;2023-12-07T02:32:28;5.80;99.90
3408;DHT22;1717;50.240;8.406;2023-12-07T02:34:55;5.80;99.90
3408;DHT22;1717;50.240;8.406;2023-12-07T02:37:24;5.90;99.90
3408;DHT22;1717;50.240;8.406;2023-12-07T02:39:53;5.90;99.90
3408;DHT22;1717;50.240;8.406;2023-12-07T02:42:22;5.90;99.90
3408;DHT22;1717;50.240;8.406;2023-12-07T02:44:53;5.80;99.90
3408;DHT22;1717;50.240;8.406;2023-12-07T02:47:21;5.90;99.90
3408;DHT22;1717;50.240;8.406;2023-12-07T02:49:48;5.90;99.90
3408;DHT22;1717;50.240;8.406;2023-12-07T02:52:14;5.90;99.90
3408;DHT22;1717;50.240;8.406;2023-12-07T02:54:41;5.90;99.90
3408;DHT22;1717;50.240;8.406;2023-12-07T02:57:08;5.90;99.90
3408;DHT22;1717;50.240;8.406;2023-12-07T02:59:36;5.90;99.90
3408;DHT22;1717;50.240;8.406;2023-12-07T03:02:03;5.80;99.90
3408;DHT22;1717;50.240;8.406;2023-12-07T03:04:30;5.80;99.90
3408;DHT22;1717;50.240;8.406;2023-12-07T03:06:57;5.80;99.90
3408;DHT22;1717;50.240;8.406;2023-12-07T03:09:24;5.80;99.90
3408;DHT22;1717;50.240;8.406;2023-12-07T03:11:51;5.80;99.90
3408;DHT22;1717;50.240;8.406;2023-12-07T03:14:18;5.80;99.90
3408;DHT22;1717;50.240;8.406;2023-12-07T03:16:47;5.70;99.90
3408;DHT22;1717;50.240;8.406;2023-12-07T03:19:13;5.70;99.90
3408;DHT22;1717;50.240;8.406;2023-12-07T03:21:42;5.70;99.90
3408;DHT22;1717;50.240;8.406;2023-12-07T03:24:09;5.70;99.90
3408;DHT22;1717;50.240;8.406;2023-12-07T03:26:37;5.70;99.90
3408;DHT22;1717;50.240;8.406;2023-12-07T03:29:04;5.70;99.90
3408;DHT22;1717;50.240;8.406;2023-12-07T03:31:31;5.70;99.90
3408;DHT22;1717;50.240;8.406;2023-12-07T03:33:59;5.70;99.90
3408;DHT22;1717;50.240;8.406;2023-12-07T03:36:27;5.70;99.90
3408;DHT22;1717;50.240;8.406;2023-12-07T03:38:54;5.80;99.90
3408;DHT22;1717;50.240;8.406;2023-12-07T03:41:21;5.80;99.90
3408;DHT22;1717;50.240;8.406;2023-12-07T03:43:48;5.80;99.90
3408;DHT22;1717;50.240;8.406;2023-12-07T03:46:14;5.80;99.90
3408;DHT22;1717;50.240;8.406;2023-12-07T03:48:41;5.80;99.90
3408;DHT22;1717;50.240;8.406;2023-12-07T03:51:12;5.80;99.90
3408;DHT22;1717;50.240;8.406;2023-12-07T03:53:40;5.80;99.90
3408;DHT22;1717;50.240;8.406;2023-12-07T03:56:08;5.80;99.90
3408;DHT22;1717;50.240;8.406;2023-12-07T03:58:35;5.80;99.90
3408;DHT22;1717;50.240;8.406;2023-12-07T04:01:02;5.80;99.90
3408;DHT22;1717;50.240;8.406;2023-12-07T04:03:29;5.80;99.90
3408;DHT22;1717;50.240;8.406;2023-12-07T04:05:56;5.80;99.90
3408;DHT22;1717;50.240;8.406;2023-12-07T04:08:24;5.80;99.90
3408;DHT22;1717;50.240;8.406;2023-12-07T04:10:51;5.80;99.90
3408;DHT22;1717;50.240;8.406;2023-12-07T04:13:18;5.80;99.90
3408;DHT22;1717;50.240;8.406;2023-12-07T04:15:45;5.80;99.90
3408;DHT22;1717;50.240;8.406;2023-12-07T04:18:12;5.80;99.90
3408;DHT22;1717;50.240;8.406;2023-12-07T04:20:39;5.80;99.90
3408;DHT22;1717;50.240;8.406;2023-12-07T04:23:06;5.80;99.90
3408;DHT22;1717;50.240;8.406;2023-12-07T04:25:34;5.90;99.90
3408;DHT22;1717;50.240;8.406;2023-12-07T04:28:01;5.90;99.90
3408;DHT22;1717;50.240;8.406;2023-12-07T04:30:28;5.90;99.90
3408;DHT22;1717;50.240;8.406;2023-12-07T04:32:54;5.90;99.90
3408;DHT22;1717;50.240;8.406;2023-12-07T04:35:21;5.90;99.90
3408;DHT22;1717;50.240;8.406;2023-12-07T04:37:48;6.00;99.90
3408;DHT22;1717;50.240;8.406;2023-12-07T04:40:15;5.90;99.90
3408;DHT22;1717;50.240;8.406;2023-12-07T04:42:43;5.90;99.90
3408;DHT22;1717;50.240;8.406;2023-12-07T04:45:10;5.90;99.90
3408;DHT22;1717;50.240;8.406;2023-12-07T04:47:37;5.90;99.90
3408;DHT22;1717;50.240;8.406;2023-12-07T04:50:04;5.90;99.90
3408;DHT22;1717;50.240;8.406;2023-12-07T04:52:31;5.90;99.90
3408;DHT22;1717;50.240;8.406;2023-12-07T04:54:59;5.90;99.90
3408;DHT22;1717;50.240;8.406;2023-12-07T04:57:26;5.80;99.90
3408;DHT22;1717;50.240;8.406;2023-12-07T04:59:54;5.70;99.90
3408;DHT22;1717;50.240;8.406;2023-12-07T05:02:21;5.70;99.90
3408;DHT22;1717;50.240;8.406;2023-12-07T05:04:48;5.70;99.90
3408;DHT22;1717;50.240;8.406;2023-12-07T05:07:15;5.70;99.90
3408;DHT22;1717;50.240;8.406;2023-12-07T05:09:42;5.70;99.90
3408;DHT22;1717;50.240;8.406;2023-12-07T05:12:09;5.80;99.90
3408;DHT22;1717;50.240;8.406;2023-12-07T05:14:36;5.70;99.90
3408;DHT22;1717;50.240;8.406;2023-12-07T05:17:04;5.60;99.90
3408;DHT22;1717;50.240;8.406;2023-12-07T05:19:31;5.70;99.90
3408;DHT22;1717;50.240;8.406;2023-12-07T05:21:58;5.70;99.90
3408;DHT22;1717;50.240;8.406;2023-12-07T05:24:25;5.60;99.90
3408;DHT22;1717;50.240;8.406;2023-12-07T05:26:52;5.60;99.90
3408;DHT22;1717;50.240;8.406;2023-12-07T05:29:19;5.50;99.90
3408;DHT22;1717;50.240;8.406;2023-12-07T05:31:48;5.40;99.90
3408;DHT22;1717;50.240;8.406;2023-12-07T05:34:16;5.30;99.90
3408;DHT22;1717;50.240;8.406;2023-12-07T05:36:44;5.40;99.90
3408;DHT22;1717;50.240;8.406;2023-12-07T05:39:11;5.30;99.90
3408;DHT22;1717;50.240;8.406;2023-12-07T05:41:38;5.30;99.90
3408;DHT22;1717;50.240;8.406;2023-12-07T05:44:05;5.30;99.90
3408;DHT22;1717;50.240;8.406;2023-12-07T05:46:32;5.30;99.90
3408;DHT22;1717;50.240;8.406;2023-12-07T05:49:01;5.30;99.90
3408;DHT22;1717;50.240;8.406;2023-12-07T05:51:30;5.30;99.90
3408;DHT22;1717;50.240;8.406;2023-12-07T05:53:56;5.30;99.90
3408;DHT22;1717;50.240;8.406;2023-12-07T05:56:23;5.20;99.90
3408;DHT22;1717;50.240;8.406;2023-12-07T05:58:50;5.20;99.90
3408;DHT22;1717;50.240;8.406;2023-12-07T06:01:18;5.20;99.90
3408;DHT22;1717;50.240;8.406;2023-12-07T06:03:45;5.20;99.90
3408;DHT22;1717;50.240;8.406;2023-12-07T06:06:12;5.30;99.90
3408;DHT22;1717;50.240;8.406;2023-12-07T06:08:40;5.20;99.90
3408;DHT22;1717;50.240;8.406;2023-12-07T06:11:07;5.10;99.90
3408;DHT22;1717;50.240;8.406;2023-12-07T06:13:34;5.10;99.90
3408;DHT22;1717;50.240;8.406;2023-12-07T06:16:01;4.90;99.90
3408;DHT22;1717;50.240;8.406;2023-12-07T06:18:28;4.80;99.90
3408;DHT22;1717;50.240;8.406;2023-12-07T06:20:55;4.90;99.90
3408;DHT22;1717;50.240;8.406;2023-12-07T06:23:22;4.90;99.90
3408;DHT22;1717;50.240;8.406;2023-12-07T06:25:50;4.90;99.90
3408;DHT22;1717;50.240;8.406;2023-12-07T06:28:17;4.80;99.90
3408;DHT22;1717;50.240;8.406;2023-12-07T06:30:44;4.80;99.90
3408;DHT22;1717;50.240;8.406;2023-12-07T06:33:11;4.90;99.90
3408;DHT22;1717;50.240;8.406;2023-12-07T06:35:38;4.80;99.90
3408;DHT22;1717;50.240;8.406;2023-12-07T06:38:05;4.90;99.90
3408;DHT22;1717;50.240;8.406;2023-12-07T06:40:32;4.80;99.90
3408;DHT22;1717;50.240;8.406;2023-12-07T06:43:00;4.80;99.90
3408;DHT22;1717;50.240;8.406;2023-12-07T06:45:27;4.70;99.90
3408;DHT22;1717;50.240;8.406;2023-12-07T06:47:54;4.70;99.90
3408;DHT22;1717;50.240;8.406;2023-12-07T06:50:21;4.70;99.90
3408;DHT22;1717;50.240;8.406;2023-12-07T06:52:48;4.80;99.90
3408;DHT22;1717;50.240;8.406;2023-12-07T06:55:14;4.70;99.90
3408;DHT22;1717;50.240;8.406;2023-12-07T06:57:42;4.70;99.90
3408;DHT22;1717;50.240;8.406;2023-12-07T07:00:10;4.60;99.90
3408;DHT22;1717;50.240;8.406;2023-12-07T07:02:38;4.70;99.90
3408;DHT22;1717;50.240;8.406;2023-12-07T07:05:05;4.60;99.90
3408;DHT22;1717;50.240;8.406;2023-12-07T07:07:32;4.60;99.90
3408;DHT22;1717;50.240;8.406;2023-12-07T07:09:59;4.60;99.90
3408;DHT22;1717;50.240;8.406;2023-12-07T07:12:26;4.70;99.90
3408;DHT22;1717;50.240;8.406;2023-12-07T07:14:53;4.60;99.90
3408;DHT22;1717;50.240;8.406;2023-12-07T07:17:21;4.60;99.90
3408;DHT22;1717;50.240;8.406;2023-12-07T07:19:48;4.50;99.90
3408;DHT22;1717;50.240;8.406;2023-12-07T07:22:15;4.50;99.90
3408;DHT22;1717;50.240;8.406;2023-12-07T07:24:42;4.50;99.90
3408;DHT22;1717;50.240;8.406;2023-12-07T07:27:09;4.50;99.90
3408;DHT22;1717;50.240;8.406;2023-12-07T07:29:35;4.60;99.90
3408;DHT22;1717;50.240;8.406;2023-12-07T07:32:03;4.60;99.90
3408;DHT22;1717;50.240;8.406;2023-12-07T07:34:31;4.60;99.90
3408;DHT22;1717;50.240;8.406;2023-12-07T07:36:58;4.70;99.90
3408;DHT22;1717;50.240;8.406;2023-12-07T07:39:25;4.70;99.90
3408;DHT22;1717;50.240;8.406;2023-12-07T07:41:52;4.70;99.90
3408;DHT22;1717;50.240;8.406;2023-12-07T07:44:18;4.70;99.90
3408;DHT22;1717;50.240;8.406;2023-12-07T07:46:45;4.70;99.90
3408;DHT22;1717;50.240;8.406;2023-12-07T07:49:12;4.70;99.90
3408;DHT22;1717;50.240;8.406;2023-12-07T07:51:41;4.70;99.90
3408;DHT22;1717;50.240;8.406;2023-12-07T07:54:07;4.70;99.90
3408;DHT22;1717;50.240;8.406;2023-12-07T07:56:35;4.70;99.90
3408;DHT22;1717;50.240;8.406;2023-12-07T07:59:02;4.70;99.90
3408;DHT22;1717;50.240;8.406;2023-12-07T08:01:29;4.70;99.90
3408;DHT22;1717;50.240;8.406;2023-12-07T08:03:55;4.70;99.90
3408;DHT22;1717;50.240;8.406;2023-12-07T08:06:22;4.70;99.90
3408;DHT22;1717;50.240;8.406;2023-12-07T08:08:51;4.60;99.90
3408;DHT22;1717;50.240;8.406;2023-12-07T08:11:17;4.60;99.90
3408;DHT22;1717;50.240;8.406;2023-12-07T08:13:45;4.50;99.90
3408;DHT22;1717;50.240;8.406;2023-12-07T08:16:12;4.60;99.90
3408;DHT22;1717;50.240;8.406;2023-12-07T08:18:38;4.60;99.90
3408;DHT22;1717;50.240;8.406;2023-12-07T08:21:05;4.60;99.90
3408;DHT22;1717;50.240;8.406;2023-12-07T08:23:34;4.60;99.90
3408;DHT22;1717;50.240;8.406;2023-12-07T08:26:02;4.60;99.90
3408;DHT22;1717;50.240;8.406;2023-12-07T08:28:29;4.60;99.90
3408;DHT22;1717;50.240;8.406;2023-12-07T08:30:56;4.60;99.90
3408;DHT22;1717;50.240;8.406;2023-12-07T08:33:23;4.60;99.90
3408;DHT22;1717;50.240;8.406;2023-12-07T08:35:50;4.50;99.90
3408;DHT22;1717;50.240;8.406;2023-12-07T08:38:20;4.50;99.90
3408;DHT22;1717;50.240;8.406;2023-12-07T08:40:48;4.50;99.90
3408;DHT22;1717;50.240;8.406;2023-12-07T08:43:18;4.50;99.90
3408;DHT22;1717;50.240;8.406;2023-12-07T08:45:45;4.50;99.90
3408;DHT22;1717;50.240;8.406;2023-12-07T08:48:12;4.50;99.90
3408;DHT22;1717;50.240;8.406;2023-12-07T08:50:39;4.50;99.90
3408;DHT22;1717;50.240;8.406;2023-12-07T08:53:06;4.60;99.90
3408;DHT22;1717;50.240;8.406;2023-12-07T08:55:33;4.50;99.90
3408;DHT22;1717;50.240;8.406;2023-12-07T08:58:00;4.60;99.90
3408;DHT22;1717;50.240;8.406;2023-12-07T09:00:31;4.60;99.90
3408;DHT22;1717;50.240;8.406;2023-12-07T09:02:57;4.70;99.90
3408;DHT22;1717;50.240;8.406;2023-12-07T09:05:26;4.70;99.90
3408;DHT22;1717;50.240;8.406;2023-12-07T09:07:53;4.70;99.90
3408;DHT22;1717;50.240;8.406;2023-12-07T09:10:20;4.70;99.90
3408;DHT22;1717;50.240;8.406;2023-12-07T09:12:47;4.70;99.90
3408;DHT22;1717;50.240;8.406;2023-12-07T09:15:13;4.70;99.90
3408;DHT22;1717;50.240;8.406;2023-12-07T09:17:42;4.80;99.90
3408;DHT22;1717;50.240;8.406;2023-12-07T09:20:10;4.80;99.90
3408;DHT22;1717;50.240;8.406;2023-12-07T09:22:38;4.80;99.90
3408;DHT22;1717;50.240;8.406;2023-12-07T09:25:07;4.80;99.90
3408;DHT22;1717;50.240;8.406;2023-12-07T09:27:34;4.80;99.90
3408;DHT22;1717;50.240;8.406;2023-12-07T09:30:04;4.90;99.90
3408;DHT22;1717;50.240;8.406;2023-12-07T09:32:32;4.90;99.90
3408;DHT22;1717;50.240;8.406;2023-12-07T09:35:05;4.90;99.90
3408;DHT22;1717;50.240;8.406;2023-12-07T09:37:33;4.90;99.90
3408;DHT22;1717;50.240;8.406;2023-12-07T09:40:01;4.90;99.90
3408;DHT22;1717;50.240;8.406;2023-12-07T09:42:30;4.90;99.90
3408;DHT22;1717;50.240;8.406;2023-12-07T09:44:57;5.10;99.90
3408;DHT22;1717;50.240;8.406;2023-12-07T09:47:25;4.90;99.90
3408;DHT22;1717;50.240;8.406;2023-12-07T09:49:53;4.90;99.90
3408;DHT22;1717;50.240;8.406;2023-12-07T09:52:22;4.90;99.90
3408;DHT22;1717;50.240;8.406;2023-12-07T09:54:50;4.90;99.90
3408;DHT22;1717;50.240;8.406;2023-12-07T09:57:18;4.80;99.90
3408;DHT22;1717;50.240;8.406;2023-12-07T09:59:45;4.90;99.90
3408;DHT22;1717;50.240;8.406;2023-12-07T10:02:13;4.80;99.90
3408;DHT22;1717;50.240;8.406;2023-12-07T10:04:40;4.80;99.90
3408;DHT22;1717;50.240;8.406;2023-12-07T10:07:07;4.90;99.90
3408;DHT22;1717;50.240;8.406;2023-12-07T10:09:38;4.90;99.90
3408;DHT22;1717;50.240;8.406;2023-12-07T10:12:06;4.90;99.90
3408;DHT22;1717;50.240;8.406;2023-12-07T10:14:33;4.90;99.90
3408;DHT22;1717;50.240;8.406;2023-12-07T10:17:01;4.90;99.90
3408;DHT22;1717;50.240;8.406;2023-12-07T10:19:29;5.00;99.90
3408;DHT22;1717;50.240;8.406;2023-12-07T10:21:56;4.90;99.90
3408;DHT22;1717;50.240;8.406;2023-12-07T10:24:25;4.90;99.90
3408;DHT22;1717;50.240;8.406;2023-12-07T10:26:54;4.90;99.90
3408;DHT22;1717;50.240;8.406;2023-12-07T10:29:22;4.90;99.90
3408;DHT22;1717;50.240;8.406;2023-12-07T10:31:49;5.10;99.90
3408;DHT22;1717;50.240;8.406;2023-12-07T10:34:18;4.90;99.90
3408;DHT22;1717;50.240;8.406;2023-12-07T10:36:46;4.90;99.90
3408;DHT22;1717;50.240;8.406;2023-12-07T10:39:14;5.10;99.90
3408;DHT22;1717;50.240;8.406;2023-12-07T10:41:43;4.90;99.90
3408;DHT22;1717;50.240;8.406;2023-12-07T10:44:13;4.90;99.90
3408;DHT22;1717;50.240;8.406;2023-12-07T10:46:42;4.90;99.90
3408;DHT22;1717;50.240;8.406;2023-12-07T10:49:15;4.90;99.90
3408;DHT22;1717;50.240;8.406;2023-12-07T10:51:50;4.90;99.90
3408;DHT22;1717;50.240;8.406;2023-12-07T10:54:22;4.90;99.90
3408;DHT22;1717;50.240;8.406;2023-12-07T10:56:49;4.90;99.90
3408;DHT22;1717;50.240;8.406;2023-12-07T10:59:18;4.90;99.90
3408;DHT22;1717;50.240;8.406;2023-12-07T11:01:47;4.90;99.90
3408;DHT22;1717;50.240;8.406;2023-12-07T11:04:15;5.00;99.90
3408;DHT22;1717;50.240;8.406;2023-12-07T11:06:44;5.00;99.90
3408;DHT22;1717;50.240;8.406;2023-12-07T11:09:16;5.00;99.90
3408;DHT22;1717;50.240;8.406;2023-12-07T11:11:48;4.90;99.90
3408;DHT22;1717;50.240;8.406;2023-12-07T11:14:19;5.00;99.90
3408;DHT22;1717;50.240;8.406;2023-12-07T11:16:46;5.00;99.90
3408;DHT22;1717;50.240;8.406;2023-12-07T11:19:43;5.00;99.90
3408;DHT22;1717;50.240;8.406;2023-12-07T11:22:11;5.00;99.90
3408;DHT22;1717;50.240;8.406;2023-12-07T11:24:45;5.10;99.90
3408;DHT22;1717;50.240;8.406;2023-12-07T11:27:18;5.00;99.90
3408;DHT22;1717;50.240;8.406;2023-12-07T11:29:47;5.10;99.90
3408;DHT22;1717;50.240;8.406;2023-12-07T11:32:14;5.10;99.90
3408;DHT22;1717;50.240;8.406;2023-12-07T11:34:42;5.10;99.90
3408;DHT22;1717;50.240;8.406;2023-12-07T11:37:10;5.10;99.90
3408;DHT22;1717;50.240;8.406;2023-12-07T11:39:39;5.10;99.90
3408;DHT22;1717;50.240;8.406;2023-12-07T11:42:07;5.10;99.90
3408;DHT22;1717;50.240;8.406;2023-12-07T11:44:37;5.10;99.90
3408;DHT22;1717;50.240;8.406;2023-12-07T11:47:06;5.20;99.90
3408;DHT22;1717;50.240;8.406;2023-12-07T11:49:33;5.00;99.90
3408;DHT22;1717;50.240;8.406;2023-12-07T11:52:00;5.20;99.90
3408;DHT22;1717;50.240;8.406;2023-12-07T11:54:28;5.20;99.90
3408;DHT22;1717;50.240;8.406;2023-12-07T11:56:58;5.20;99.90
3408;DHT22;1717;50.240;8.406;2023-12-07T11:59:25;5.30;99.90
3408;DHT22;1717;50.240;8.406;2023-12-07T12:01:53;5.30;99.90
3408;DHT22;1717;50.240;8.406;2023-12-07T12:04:22;5.30;99.90
3408;DHT22;1717;50.240;8.406;2023-12-07T12:06:49;5.50;99.90
3408;DHT22;1717;50.240;8.406;2023-12-07T12:09:16;5.30;99.90
3408;DHT22;1717;50.240;8.406;2023-12-07T12:11:44;5.30;99.90
3408;DHT22;1717;50.240;8.406;2023-12-07T12:14:12;5.40;99.90
3408;DHT22;1717;50.240;8.406;2023-12-07T12:16:40;5.40;99.90
3408;DHT22;1717;50.240;8.406;2023-12-07T12:19:07;5.40;99.90
3408;DHT22;1717;50.240;8.406;2023-12-07T12:21:36;5.40;99.90
3408;DHT22;1717;50.240;8.406;2023-12-07T12:24:04;5.40;99.90
3408;DHT22;1717;50.240;8.406;2023-12-07T12:26:33;5.40;99.90
3408;DHT22;1717;50.240;8.406;2023-12-07T12:29:00;5.40;99.90
3408;DHT22;1717;50.240;8.406;2023-12-07T12:31:27;5.50;99.90
3408;DHT22;1717;50.240;8.406;2023-12-07T12:33:54;5.50;99.90
3408;DHT22;1717;50.240;8.406;2023-12-07T12:36:21;5.50;99.90
3408;DHT22;1717;50.240;8.406;2023-12-07T12:38:50;5.50;99.90
3408;DHT22;1717;50.240;8.406;2023-12-07T12:41:18;5.60;99.90
3408;DHT22;1717;50.240;8.406;2023-12-07T12:43:45;5.60;99.90
3408;DHT22;1717;50.240;8.406;2023-12-07T12:46:13;5.60;99.90
3408;DHT22;1717;50.240;8.406;2023-12-07T12:48:53;5.60;99.90
3408;DHT22;1717;50.240;8.406;2023-12-07T12:51:24;5.60;99.90
3408;DHT22;1717;50.240;8.406;2023-12-07T12:53:53;5.70;99.90
3408;DHT22;1717;50.240;8.406;2023-12-07T12:56:21;5.70;99.90
3408;DHT22;1717;50.240;8.406;2023-12-07T12:58:48;5.70;99.90
3408;DHT22;1717;50.240;8.406;2023-12-07T13:01:15;5.80;99.90
3408;DHT22;1717;50.240;8.406;2023-12-07T13:03:43;5.80;99.90
3408;DHT22;1717;50.240;8.406;2023-12-07T13:06:11;5.80;99.90
3408;DHT22;1717;50.240;8.406;2023-12-07T13:08:38;5.80;99.90
3408;DHT22;1717;50.240;8.406;2023-12-07T13:11:07;5.80;99.90
3408;DHT22;1717;50.240;8.406;2023-12-07T13:13:34;5.80;99.90
3408;DHT22;1717;50.240;8.406;2023-12-07T13:16:01;5.80;99.90
3408;DHT22;1717;50.240;8.406;2023-12-07T13:18:28;5.80;99.90
3408;DHT22;1717;50.240;8.406;2023-12-07T13:20:56;5.90;99.90
3408;DHT22;1717;50.240;8.406;2023-12-07T13:23:23;6.00;99.90
3408;DHT22;1717;50.240;8.406;2023-12-07T13:25:50;5.90;99.90
3408;DHT22;1717;50.240;8.406;2023-12-07T13:28:18;6.10;99.90
3408;DHT22;1717;50.240;8.406;2023-12-07T13:30:45;6.00;99.90
3408;DHT22;1717;50.240;8.406;2023-12-07T13:33:12;6.10;99.90
3408;DHT22;1717;50.240;8.406;2023-12-07T13:35:39;6.20;99.90
3408;DHT22;1717;50.240;8.406;2023-12-07T13:38:06;6.20;99.90
3408;DHT22;1717;50.240;8.406;2023-12-07T13:40:32;6.20;99.90
3408;DHT22;1717;50.240;8.406;2023-12-07T13:43:03;6.10;99.90
3408;DHT22;1717;50.240;8.406;2023-12-07T13:45:31;6.10;99.90
3408;DHT22;1717;50.240;8.406;2023-12-07T13:47:58;6.10;99.90
3408;DHT22;1717;50.240;8.406;2023-12-07T13:50:25;6.10;99.90
3408;DHT22;1717;50.240;8.406;2023-12-07T13:52:53;6.00;99.90
3408;DHT22;1717;50.240;8.406;2023-12-07T13:55:20;6.00;99.90
3408;DHT22;1717;50.240;8.406;2023-12-07T13:57:47;6.00;99.90
3408;DHT22;1717;50.240;8.406;2023-12-07T14:00:14;6.00;99.90
3408;DHT22;1717;50.240;8.406;2023-12-07T14:02:42;6.00;99.90
3408;DHT22;1717;50.240;8.406;2023-12-07T14:05:09;5.90;99.90
3408;DHT22;1717;50.240;8.406;2023-12-07T14:07:36;5.90;99.90
3408;DHT22;1717;50.240;8.406;2023-12-07T14:10:04;5.90;99.90
3408;DHT22;1717;50.240;8.406;2023-12-07T14:12:31;5.70;99.90
3408;DHT22;1717;50.240;8.406;2023-12-07T14:14:58;5.80;99.90
3408;DHT22;1717;50.240;8.406;2023-12-07T14:17:25;5.70;99.90
3408;DHT22;1717;50.240;8.406;2023-12-07T14:19:54;5.70;99.90
3408;DHT22;1717;50.240;8.406;2023-12-07T14:22:21;5.60;99.90
3408;DHT22;1717;50.240;8.406;2023-12-07T14:24:48;5.60;99.90
3408;DHT22;1717;50.240;8.406;2023-12-07T14:27:14;5.60;99.90
3408;DHT22;1717;50.240;8.406;2023-12-07T14:29:41;5.60;99.90
3408;DHT22;1717;50.240;8.406;2023-12-07T14:32:08;5.70;99.90
3408;DHT22;1717;50.240;8.406;2023-12-07T14:34:37;5.60;99.90
3408;DHT22;1717;50.240;8.406;2023-12-07T14:37:05;5.60;99.90
3408;DHT22;1717;50.240;8.406;2023-12-07T14:39:34;5.60;99.90
3408;DHT22;1717;50.240;8.406;2023-12-07T14:42:00;5.50;99.90
3408;DHT22;1717;50.240;8.406;2023-12-07T14:44:28;5.60;99.90
3408;DHT22;1717;50.240;8.406;2023-12-07T14:46:55;5.50;99.90
3408;DHT22;1717;50.240;8.406;2023-12-07T14:49:22;5.50;99.90
3408;DHT22;1717;50.240;8.406;2023-12-07T14:51:49;5.50;99.90
3408;DHT22;1717;50.240;8.406;2023-12-07T14:54:18;5.30;99.90
3408;DHT22;1717;50.240;8.406;2023-12-07T14:56:45;5.30;99.90
3408;DHT22;1717;50.240;8.406;2023-12-07T14:59:12;5.30;99.90
3408;DHT22;1717;50.240;8.406;2023-12-07T15:01:39;5.20;99.90
3408;DHT22;1717;50.240;8.406;2023-12-07T15:04:06;5.20;99.90
3408;DHT22;1717;50.240;8.406;2023-12-07T15:06:33;5.10;99.90
3408;DHT22;1717;50.240;8.406;2023-12-07T15:09:00;5.00;99.90
3408;DHT22;1717;50.240;8.406;2023-12-07T15:11:32;4.90;99.90
3408;DHT22;1717;50.240;8.406;2023-12-07T15:13:59;4.80;99.90
3408;DHT22;1717;50.240;8.406;2023-12-07T15:16:26;4.80;99.90
3408;DHT22;1717;50.240;8.406;2023-12-07T15:18:53;4.70;99.90
3408;DHT22;1717;50.240;8.406;2023-12-07T15:21:20;4.70;99.90
3408;DHT22;1717;50.240;8.406;2023-12-07T15:23:49;4.60;99.90
3408;DHT22;1717;50.240;8.406;2023-12-07T15:26:15;4.30;99.90
3408;DHT22;1717;50.240;8.406;2023-12-07T15:28:43;4.30;99.90
3408;DHT22;1717;50.240;8.406;2023-12-07T15:31:11;4.20;99.90
3408;DHT22;1717;50.240;8.406;2023-12-07T15:33:38;4.20;99.90
3408;DHT22;1717;50.240;8.406;2023-12-07T15:36:05;4.10;99.90
3408;DHT22;1717;50.240;8.406;2023-12-07T15:38:32;4.20;99.90
3408;DHT22;1717;50.240;8.406;2023-12-07T15:40:59;4.10;99.90
3408;DHT22;1717;50.240;8.406;2023-12-07T15:43:28;4.10;99.90
3408;DHT22;1717;50.240;8.406;2023-12-07T15:45:56;4.00;99.90
3408;DHT22;1717;50.240;8.406;2023-12-07T15:48:23;4.00;99.90
3408;DHT22;1717;50.240;8.406;2023-12-07T15:50:51;4.00;99.90
3408;DHT22;1717;50.240;8.406;2023-12-07T15:53:18;3.90;99.90
3408;DHT22;1717;50.240;8.406;2023-12-07T15:55:45;3.70;99.90
3408;DHT22;1717;50.240;8.406;2023-12-07T15:58:12;3.60;99.90
3408;DHT22;1717;50.240;8.406;2023-12-07T16:00:39;3.60;99.90
3408;DHT22;1717;50.240;8.406;2023-12-07T16:03:07;3.50;99.90
3408;DHT22;1717;50.240;8.406;2023-12-07T16:05:34;3.50;99.90
3408;DHT22;1717;50.240;8.406;2023-12-07T16:08:01;3.50;99.90
3408;DHT22;1717;50.240;8.406;2023-12-07T16:10:28;3.40;99.90
3408;DHT22;1717;50.240;8.406;2023-12-07T16:12:55;3.50;99.90
3408;DHT22;1717;50.240;8.406;2023-12-07T16:15:22;3.20;99.90
3408;DHT22;1717;50.240;8.406;2023-12-07T16:17:49;3.50;99.90
3408;DHT22;1717;50.240;8.406;2023-12-07T16:20:17;3.50;99.90